createdAt,value
2022-09-27T00:01:14.974Z,30.20
2022-09-27T00:03:43.828Z,27.80
2022-09-27T00:06:19.919Z,22.90
2022-09-27T00:08:47.827Z,32.60
2022-09-27T00:11:25.785Z,33.70
2022-09-27T00:13:58.889Z,35.20
2022-09-27T00:16:30.989Z,42.50
2022-09-27T00:19:01.278Z,32.60
2022-09-27T00:21:30.887Z,30.30
2022-09-27T00:23:59.739Z,31.00
2022-09-27T00:26:29.424Z,33.20
2022-09-27T00:28:57.656Z,32.10
2022-09-27T00:31:29.927Z,31.40
2022-09-27T00:34:01.348Z,29.60
2022-09-27T00:36:31.700Z,26.00
2022-09-27T00:39:00.903Z,31.70
2022-09-27T00:41:35.883Z,30.30
2022-09-27T00:44:25.989Z,29.90
2022-09-27T00:47:25.262Z,29.80
2022-09-27T00:50:00.452Z,29.80
2022-09-27T00:52:46.648Z,28.50
2022-09-27T00:55:22.358Z,27.70
2022-09-27T00:57:51.574Z,28.10
2022-09-27T01:00:21.893Z,29.00
2022-09-27T01:02:53.813Z,29.30
2022-09-27T01:05:26.284Z,30.00
2022-09-27T01:07:56.805Z,31.10
2022-09-27T01:10:29.130Z,29.50
2022-09-27T01:13:23.800Z,27.60
2022-09-27T01:15:51.852Z,27.40
2022-09-27T01:18:53.261Z,30.90
2022-09-27T01:21:45.273Z,28.50
2022-09-27T01:24:50.019Z,28.10
2022-09-27T01:27:32.344Z,28.70
2022-09-27T01:30:18.562Z,30.30
2022-09-27T01:33:11.646Z,30.00
2022-09-27T01:35:58.003Z,28.60
2022-09-27T01:38:56.510Z,28.30
2022-09-27T01:41:48.017Z,27.50
2022-09-27T01:44:48.638Z,28.00
2022-09-27T01:47:29.222Z,27.20
2022-09-27T01:50:03.313Z,27.00
2022-09-27T01:52:40.391Z,28.70
2022-09-27T01:55:13.552Z,27.90
2022-09-27T01:58:25.326Z,25.40
2022-09-27T02:00:56.075Z,25.00
2022-09-27T02:03:32.310Z,27.80
2022-09-27T02:06:28.492Z,24.30
2022-09-27T02:09:29.879Z,25.80
2022-09-27T02:12:22.704Z,25.50
2022-09-27T02:15:07.048Z,25.20
2022-09-27T02:18:01.072Z,23.50
2022-09-27T02:21:04.966Z,24.10
2022-09-27T02:23:47.438Z,23.90
2022-09-27T02:26:27.836Z,21.70
2022-09-27T02:29:07.657Z,20.30
2022-09-27T02:31:42.719Z,18.50
2022-09-27T02:34:22.749Z,18.10
2022-09-27T02:36:53.673Z,16.30
2022-09-27T02:39:24.734Z,14.30
2022-09-27T02:42:01.018Z,13.90
2022-09-27T02:44:30.377Z,13.40
2022-09-27T02:47:21.913Z,13.00
2022-09-27T02:49:49.883Z,13.50
2022-09-27T02:52:55.813Z,12.20
2022-09-27T02:55:41.242Z,11.80
2022-09-27T02:58:43.526Z,12.10
2022-09-27T03:02:13.774Z,11.80
2022-09-27T03:06:05.147Z,12.20
2022-09-27T03:08:33.309Z,12.40
2022-09-27T03:11:02.096Z,12.00
2022-09-27T03:13:31.630Z,12.50
2022-09-27T03:16:01.726Z,11.90
2022-09-27T03:18:53.087Z,12.80
2022-09-27T03:21:40.158Z,11.20
2022-09-27T03:24:10.347Z,11.40
2022-09-27T03:26:38.243Z,11.40
2022-09-27T03:29:06.124Z,11.20
2022-09-27T03:31:34.671Z,10.80
2022-09-27T03:34:28.324Z,11.00
2022-09-27T03:36:57.272Z,10.90
2022-09-27T03:39:25.480Z,10.70
2022-09-27T03:41:53.762Z,10.00
2022-09-27T03:44:21.855Z,10.20
2022-09-27T03:46:50.157Z,9.60
2022-09-27T03:49:19.304Z,8.40
2022-09-27T03:51:47.461Z,10.50
2022-09-27T03:54:15.926Z,8.20
2022-09-27T03:56:44.031Z,8.00
2022-09-27T03:59:12.735Z,7.50
2022-09-27T04:02:00.848Z,7.30
2022-09-27T04:04:48.784Z,6.90
2022-09-27T04:07:18.102Z,6.00
2022-09-27T04:09:47.175Z,7.10
2022-09-27T04:12:16.056Z,6.50
2022-09-27T04:14:44.357Z,6.30
2022-09-27T04:17:36.245Z,6.80
2022-09-27T04:20:27.253Z,6.30
2022-09-27T04:22:55.734Z,7.30
2022-09-27T04:25:24.424Z,8.60
2022-09-27T04:27:55.046Z,9.50
2022-09-27T04:30:23.235Z,10.10
2022-09-27T04:33:13.905Z,9.90
2022-09-27T04:36:20.709Z,10.30
2022-09-27T04:39:10.736Z,10.10
2022-09-27T04:41:41.861Z,9.90
2022-09-27T04:44:09.827Z,9.50
2022-09-27T04:46:37.857Z,9.30
2022-09-27T04:49:05.960Z,9.70
2022-09-27T04:51:36.425Z,9.00
2022-09-27T04:54:05.099Z,8.50
2022-09-27T04:56:36.814Z,6.90
2022-09-27T04:59:10.024Z,6.90
2022-09-27T05:01:40.386Z,6.00
2022-09-27T05:04:30.473Z,7.80
2022-09-27T05:06:58.632Z,7.90
2022-09-27T05:09:33.429Z,7.70
2022-09-27T05:12:02.744Z,7.60
2022-09-27T05:14:33.694Z,4.00
2022-09-27T05:17:18.939Z,3.60
2022-09-27T05:19:46.962Z,4.70
2022-09-27T05:22:31.294Z,4.00
2022-09-27T05:24:59.366Z,4.90
2022-09-27T05:27:27.455Z,7.80
2022-09-27T05:29:57.057Z,7.20
2022-09-27T05:32:34.777Z,7.60
2022-09-27T05:35:26.262Z,7.10
2022-09-27T05:37:57.093Z,6.80
2022-09-27T05:40:42.432Z,6.80
2022-09-27T05:43:12.112Z,7.40
2022-09-27T05:45:40.597Z,7.40
2022-09-27T05:48:10.072Z,9.40
2022-09-27T05:50:44.943Z,12.80
2022-09-27T05:53:13.589Z,11.80
2022-09-27T05:55:43.312Z,10.80
2022-09-27T05:58:16.627Z,9.50
2022-09-27T06:00:52.616Z,9.30
2022-09-27T06:03:37.600Z,9.60
2022-09-27T06:06:38.961Z,8.60
2022-09-27T06:09:11.579Z,7.90
2022-09-27T06:11:45.115Z,6.80
2022-09-27T06:14:18.630Z,7.40
2022-09-27T06:16:59.995Z,7.20
2022-09-27T06:19:36.511Z,6.70
2022-09-27T06:22:08.487Z,6.30
2022-09-27T06:24:44.480Z,6.50
2022-09-27T06:27:21.675Z,5.70
2022-09-27T06:30:02.479Z,4.70
2022-09-27T06:32:43.769Z,4.50
2022-09-27T06:35:27.295Z,4.80
2022-09-27T06:37:56.834Z,6.20
2022-09-27T06:40:27.670Z,6.20
2022-09-27T06:43:11.821Z,5.80
2022-09-27T06:46:05.970Z,6.30
2022-09-27T06:48:48.345Z,5.60
2022-09-27T06:51:18.292Z,6.50
2022-09-27T06:53:46.411Z,6.20
2022-09-27T06:56:14.878Z,6.50
2022-09-27T06:59:09.521Z,7.00
2022-09-27T07:01:59.051Z,6.60
2022-09-27T07:04:36.064Z,5.50
2022-09-27T07:07:07.432Z,5.60
2022-09-27T07:09:40.839Z,5.60
2022-09-27T07:12:09.421Z,5.80
2022-09-27T07:14:38.311Z,6.10
2022-09-27T07:17:06.935Z,6.00
2022-09-27T07:19:39.112Z,6.00
2022-09-27T07:22:09.014Z,6.20
2022-09-27T07:24:38.114Z,6.40
2022-09-27T07:27:07.356Z,6.40
2022-09-27T07:29:35.882Z,6.70
2022-09-27T07:32:04.552Z,6.40
2022-09-27T07:34:35.822Z,6.90
2022-09-27T07:37:05.809Z,6.50
2022-09-27T07:39:38.536Z,6.50
2022-09-27T07:42:07.238Z,5.60
2022-09-27T07:44:39.573Z,6.50
2022-09-27T07:47:30.762Z,8.20
2022-09-27T07:50:18.663Z,5.90
2022-09-27T07:52:54.150Z,5.30
2022-09-27T07:55:44.324Z,5.30
2022-09-27T07:58:15.321Z,3.80
2022-09-27T08:00:44.514Z,4.10
2022-09-27T08:03:16.320Z,4.50
2022-09-27T08:05:47.527Z,4.50
2022-09-27T08:08:17.930Z,3.80
2022-09-27T08:10:48.152Z,4.90
2022-09-27T08:13:20.759Z,4.70
2022-09-27T08:15:53.069Z,4.40
2022-09-27T08:18:24.501Z,6.40
2022-09-27T08:20:59.974Z,5.70
2022-09-27T08:23:45.073Z,6.20
2022-09-27T08:26:21.091Z,6.00
2022-09-27T08:28:54.101Z,5.70
2022-09-27T08:31:26.784Z,4.40
2022-09-27T08:33:57.994Z,4.10
2022-09-27T08:36:27.154Z,3.30
2022-09-27T08:38:59.217Z,3.80
2022-09-27T08:41:39.033Z,3.80
2022-09-27T08:44:26.457Z,4.00
2022-09-27T08:47:12.496Z,3.80
2022-09-27T08:50:22.716Z,3.70
2022-09-27T08:52:59.771Z,3.60
2022-09-27T08:55:38.537Z,3.50
2022-09-27T08:58:19.851Z,4.30
2022-09-27T09:00:55.602Z,4.20
2022-09-27T09:03:30.308Z,5.00
2022-09-27T09:06:20.534Z,4.50
2022-09-27T09:08:58.140Z,3.00
2022-09-27T09:12:18.976Z,2.90
2022-09-27T09:15:22.625Z,3.40
2022-09-27T09:18:06.589Z,3.00
2022-09-27T09:21:29.040Z,3.30
2022-09-27T09:24:04.830Z,3.70
2022-09-27T09:26:49.737Z,3.60
2022-09-27T09:29:34.601Z,2.90
2022-09-27T09:32:15.430Z,3.20
2022-09-27T09:34:48.976Z,2.90
2022-09-27T09:37:41.128Z,3.70
2022-09-27T09:40:25.250Z,2.80
2022-09-27T09:43:10.806Z,2.60
2022-09-27T09:45:51.604Z,3.30
2022-09-27T09:48:26.008Z,3.40
2022-09-27T09:50:58.681Z,3.40
2022-09-27T09:53:33.799Z,3.30
2022-09-27T09:56:07.380Z,3.30
2022-09-27T09:58:42.998Z,3.30
2022-09-27T10:01:20.762Z,3.40
2022-09-27T10:03:49.347Z,3.60
2022-09-27T10:06:18.763Z,3.20
2022-09-27T10:08:47.858Z,4.50
2022-09-27T10:11:40.798Z,4.00
2022-09-27T10:14:20.866Z,3.70
2022-09-27T10:16:58.661Z,3.70
2022-09-27T10:19:33.347Z,4.10
2022-09-27T10:22:19.196Z,4.00
2022-09-27T10:25:01.939Z,2.40
2022-09-27T10:27:52.084Z,2.60
2022-09-27T10:30:28.468Z,3.30
2022-09-27T10:33:00.931Z,2.30
2022-09-27T10:35:50.417Z,2.90
2022-09-27T10:38:29.196Z,2.80
2022-09-27T10:41:47.479Z,2.90
2022-09-27T10:44:26.157Z,2.70
2022-09-27T10:47:16.605Z,3.00
2022-09-27T10:49:52.849Z,2.60
2022-09-27T10:52:39.648Z,2.70
2022-09-27T10:55:36.035Z,2.80
2022-09-27T10:58:05.063Z,2.30
2022-09-27T11:00:36.510Z,2.80
2022-09-27T11:03:17.015Z,2.20
2022-09-27T11:05:46.170Z,2.50
2022-09-27T11:08:26.780Z,2.70
2022-09-27T11:11:07.045Z,2.60
2022-09-27T11:13:38.082Z,2.50
2022-09-27T11:16:12.958Z,2.10
2022-09-27T11:19:01.225Z,2.70
2022-09-27T11:21:53.192Z,2.30
2022-09-27T11:24:33.582Z,2.70
2022-09-27T11:27:09.358Z,2.20
2022-09-27T11:29:47.945Z,2.20
2022-09-27T11:32:36.337Z,2.00
2022-09-27T11:35:45.004Z,2.60
2022-09-27T11:38:52.277Z,2.30
2022-09-27T11:41:34.435Z,2.30
2022-09-27T11:44:05.628Z,2.50
2022-09-27T11:46:41.547Z,2.40
2022-09-27T11:49:47.575Z,2.10
2022-09-27T11:52:34.438Z,2.40
2022-09-27T11:55:40.412Z,1.80
2022-09-27T11:58:21.170Z,1.80
2022-09-27T12:00:59.560Z,2.00
2022-09-27T12:04:05.542Z,2.00
2022-09-27T12:06:52.663Z,2.40
2022-09-27T12:09:26.593Z,2.30
2022-09-27T12:12:05.179Z,2.30
2022-09-27T12:14:43.059Z,2.20
2022-09-27T12:17:25.393Z,2.60
2022-09-27T12:19:59.308Z,2.30
2022-09-27T12:23:36.609Z,2.40
2022-09-27T12:26:45.545Z,1.80
2022-09-27T12:29:39.821Z,2.00
2022-09-27T12:32:30.184Z,1.90
2022-09-27T12:35:04.391Z,1.90
2022-09-27T12:37:43.010Z,2.10
2022-09-27T12:40:29.519Z,2.00
2022-09-27T12:43:24.117Z,2.30
2022-09-27T12:46:13.235Z,2.50
2022-09-27T12:49:05.503Z,2.30
2022-09-27T12:51:45.177Z,3.10
2022-09-27T12:54:13.402Z,2.90
2022-09-27T12:57:08.888Z,2.60
2022-09-27T12:59:43.349Z,3.30
2022-09-27T13:02:26.924Z,3.10
2022-09-27T13:05:22.595Z,3.50
2022-09-27T13:08:19.210Z,3.50
2022-09-27T13:11:19.646Z,2.60
2022-09-27T13:13:48.559Z,3.30
2022-09-27T13:16:17.477Z,3.00
2022-09-27T13:18:49.136Z,3.20
2022-09-27T13:21:51.395Z,3.30
2022-09-27T13:24:41.586Z,3.30
2022-09-27T13:27:27.652Z,3.70
2022-09-27T13:30:12.782Z,3.40
2022-09-27T13:33:14.219Z,3.00
2022-09-27T13:36:08.358Z,3.00
2022-09-27T13:38:37.682Z,2.80
2022-09-27T13:41:21.424Z,3.30
2022-09-27T13:43:54.564Z,3.40
2022-09-27T13:46:30.979Z,3.60
2022-09-27T13:49:16.080Z,3.90
2022-09-27T13:52:25.356Z,3.70
2022-09-27T13:55:42.416Z,3.70
2022-09-27T13:58:42.910Z,1.90
2022-09-27T14:04:19.931Z,3.30
2022-09-27T14:06:57.536Z,3.90
2022-09-27T14:09:54.055Z,3.40
2022-09-27T14:12:34.373Z,3.30
2022-09-27T14:15:05.321Z,3.30
2022-09-27T14:17:34.408Z,3.50
2022-09-27T14:20:04.210Z,3.70
2022-09-27T14:22:34.997Z,3.30
2022-09-27T14:25:17.914Z,3.00
2022-09-27T14:27:48.610Z,3.20
2022-09-27T14:30:25.229Z,3.10
2022-09-27T14:33:00.419Z,2.70
2022-09-27T14:36:09.051Z,3.00
2022-09-27T14:38:39.600Z,3.10
2022-09-27T14:41:16.312Z,3.70
2022-09-27T14:43:50.758Z,3.60
2022-09-27T14:46:32.050Z,3.20
2022-09-27T14:49:18.667Z,2.60
2022-09-27T14:51:57.040Z,3.00
2022-09-27T14:54:30.746Z,2.90
2022-09-27T14:57:00.482Z,3.10
2022-09-27T14:59:34.878Z,3.30
2022-09-27T15:02:17.731Z,3.80
2022-09-27T15:04:50.345Z,3.50
2022-09-27T15:07:22.529Z,4.40
2022-09-27T15:09:52.194Z,3.20
2022-09-27T15:12:26.392Z,3.00
2022-09-27T15:14:58.386Z,3.70
2022-09-27T15:17:26.935Z,3.40
2022-09-27T15:20:04.666Z,3.60
2022-09-27T15:22:41.642Z,4.20
2022-09-27T15:25:44.471Z,3.80
2022-09-27T15:28:19.575Z,3.40
2022-09-27T15:30:59.093Z,3.90
2022-09-27T15:33:31.891Z,3.60
2022-09-27T15:36:04.219Z,3.60
2022-09-27T15:38:39.901Z,3.40
2022-09-27T15:41:20.454Z,3.80
2022-09-27T15:43:52.727Z,3.30
2022-09-27T15:46:37.359Z,4.40
2022-09-27T15:49:18.413Z,4.10
2022-09-27T15:51:53.343Z,4.10
2022-09-27T15:54:23.806Z,4.60
2022-09-27T15:56:56.286Z,5.30
2022-09-27T15:59:28.060Z,4.40
2022-09-27T16:01:58.827Z,4.80
2022-09-27T16:04:27.793Z,4.10
2022-09-27T16:06:55.857Z,4.60
2022-09-27T16:09:24.172Z,4.80
2022-09-27T16:11:52.955Z,5.20
2022-09-27T16:14:21.298Z,5.30
2022-09-27T16:16:58.913Z,5.40
2022-09-27T16:19:27.087Z,6.20
2022-09-27T16:21:55.773Z,5.70
2022-09-27T16:24:25.361Z,5.40
2022-09-27T16:26:53.443Z,5.70
2022-09-27T16:29:21.553Z,5.20
2022-09-27T16:31:50.226Z,4.90
2022-09-27T16:34:18.490Z,5.00
2022-09-27T16:36:46.735Z,4.50
2022-09-27T16:39:14.983Z,3.90
2022-09-27T16:41:43.833Z,3.80
2022-09-27T16:44:17.882Z,4.20
2022-09-27T16:46:49.087Z,4.50
2022-09-27T16:49:35.538Z,4.60
2022-09-27T16:52:05.259Z,5.10
2022-09-27T16:54:33.735Z,5.10
2022-09-27T16:57:02.001Z,5.90
2022-09-27T16:59:30.200Z,5.30
2022-09-27T17:01:58.667Z,5.90
2022-09-27T17:04:28.557Z,5.80
2022-09-27T17:06:57.169Z,5.60
2022-09-27T17:09:25.939Z,6.70
2022-09-27T17:11:55.443Z,7.90
2022-09-27T17:14:23.919Z,6.50
2022-09-27T17:16:52.836Z,6.70
2022-09-27T17:19:21.231Z,5.80
2022-09-27T17:21:50.972Z,5.90
2022-09-27T17:24:18.889Z,6.30
2022-09-27T17:26:46.863Z,6.40
2022-09-27T17:29:15.316Z,5.30
2022-09-27T17:31:44.550Z,7.70
2022-09-27T17:34:14.262Z,8.40
2022-09-27T17:36:48.365Z,8.60
2022-09-27T17:39:18.974Z,10.90
2022-09-27T17:41:51.133Z,11.60
2022-09-27T17:44:19.409Z,12.50
2022-09-27T17:47:07.925Z,10.40
2022-09-27T17:49:54.403Z,7.70
2022-09-27T17:52:23.701Z,6.80
2022-09-27T17:54:54.534Z,6.50
2022-09-27T17:57:22.630Z,7.10
2022-09-27T17:59:51.143Z,7.00
2022-09-27T18:02:20.847Z,6.80
2022-09-27T18:04:48.987Z,6.70
2022-09-27T18:07:16.940Z,7.10
2022-09-27T18:09:44.859Z,6.10
2022-09-27T18:12:13.883Z,7.10
2022-09-27T18:14:42.172Z,6.80
2022-09-27T18:17:13.112Z,6.60
2022-09-27T18:19:41.336Z,6.60
2022-09-27T18:22:09.252Z,4.90
2022-09-27T18:24:37.249Z,4.10
2022-09-27T18:27:05.077Z,3.20
2022-09-27T18:29:33.393Z,3.10
2022-09-27T18:32:02.297Z,2.90
2022-09-27T18:34:30.184Z,2.60
2022-09-27T18:36:57.921Z,2.60
2022-09-27T18:39:25.841Z,2.80
2022-09-27T18:41:55.537Z,3.00
2022-09-27T18:44:23.600Z,3.50
2022-09-27T18:46:51.487Z,3.50
2022-09-27T18:49:22.320Z,3.90
2022-09-27T18:51:53.966Z,3.10
2022-09-27T18:54:23.297Z,3.30
2022-09-27T18:56:52.511Z,2.90
2022-09-27T18:59:21.594Z,3.00
2022-09-27T19:01:49.754Z,3.20
2022-09-27T19:04:24.239Z,3.30
2022-09-27T19:06:54.814Z,3.20
2022-09-27T19:09:24.658Z,3.60
2022-09-27T19:11:52.563Z,3.90
2022-09-27T19:14:22.729Z,3.50
2022-09-27T19:16:51.357Z,3.20
2022-09-27T19:19:20.301Z,2.90
2022-09-27T19:21:49.110Z,3.00
2022-09-27T19:24:19.012Z,2.10
2022-09-27T19:26:47.552Z,2.00
2022-09-27T19:29:15.621Z,1.90
2022-09-27T19:31:43.767Z,1.60
2022-09-27T19:34:12.086Z,1.90
2022-09-27T19:36:40.267Z,2.10
2022-09-27T19:39:08.489Z,1.90
2022-09-27T19:41:36.463Z,2.20
2022-09-27T19:44:04.364Z,2.00
2022-09-27T19:46:32.343Z,2.20
2022-09-27T19:49:00.796Z,1.90
2022-09-27T19:51:29.165Z,1.80
2022-09-27T19:53:57.544Z,1.50
2022-09-27T19:56:25.795Z,1.40
2022-09-27T19:58:54.916Z,1.50
2022-09-27T20:01:24.938Z,1.70
2022-09-27T20:03:55.974Z,1.80
2022-09-27T20:06:23.840Z,1.80
2022-09-27T20:08:52.204Z,2.00
2022-09-27T20:11:22.245Z,1.70
2022-09-27T20:13:53.137Z,2.00
2022-09-27T20:16:23.711Z,1.70
2022-09-27T20:18:54.804Z,2.20
2022-09-27T20:21:26.842Z,2.30
2022-09-27T20:23:57.138Z,2.10
2022-09-27T20:26:27.344Z,2.00
2022-09-27T20:28:57.844Z,2.00
2022-09-27T20:31:33.830Z,2.30
2022-09-27T20:34:01.975Z,2.10
2022-09-27T20:36:37.001Z,1.90
2022-09-27T20:39:10.081Z,2.20
2022-09-27T20:41:43.983Z,1.90
2022-09-27T20:44:14.707Z,2.10
2022-09-27T20:46:47.149Z,1.90
2022-09-27T20:49:18.644Z,1.80
2022-09-27T20:51:51.443Z,1.80
2022-09-27T20:54:19.497Z,1.60
2022-09-27T20:56:49.013Z,1.60
2022-09-27T20:59:19.869Z,1.70
2022-09-27T21:01:50.499Z,2.00
2022-09-27T21:04:20.024Z,2.10
2022-09-27T21:06:48.247Z,2.20
2022-09-27T21:09:20.088Z,2.30
2022-09-27T21:11:52.005Z,2.30
2022-09-27T21:14:20.446Z,2.10
2022-09-27T21:16:49.142Z,2.20
2022-09-27T21:19:17.539Z,2.10
2022-09-27T21:21:46.208Z,2.00
2022-09-27T21:24:14.465Z,1.60
2022-09-27T21:26:42.742Z,1.60
2022-09-27T21:29:13.685Z,2.00
2022-09-27T21:31:42.156Z,1.90
2022-09-27T21:34:10.468Z,1.90
2022-09-27T21:36:39.004Z,1.80
2022-09-27T21:39:08.876Z,1.70
2022-09-27T21:41:39.147Z,1.70
2022-09-27T21:44:08.368Z,1.50
2022-09-27T21:46:40.934Z,2.00
2022-09-27T21:49:09.319Z,2.30
2022-09-27T21:51:40.223Z,2.30
2022-09-27T21:54:14.781Z,3.00
2022-09-27T21:56:44.023Z,3.50
2022-09-27T21:59:15.211Z,2.80
2022-09-27T22:01:45.686Z,2.80
2022-09-27T22:04:13.788Z,2.50
2022-09-27T22:06:42.099Z,2.20
2022-09-27T22:09:15.378Z,2.60
2022-09-27T22:11:44.451Z,2.60
2022-09-27T22:14:17.386Z,2.60
2022-09-27T22:16:45.754Z,3.00
2022-09-27T22:19:15.490Z,3.00
2022-09-27T22:21:44.067Z,2.50
2022-09-27T22:24:17.204Z,2.60
2022-09-27T22:26:48.692Z,3.00
2022-09-27T22:29:17.039Z,2.90
2022-09-27T22:31:45.219Z,2.70
2022-09-27T22:34:18.642Z,2.40
2022-09-27T22:36:47.117Z,2.70
2022-09-27T22:39:15.096Z,3.00
2022-09-27T22:41:43.561Z,3.10
2022-09-27T22:44:11.586Z,3.10
2022-09-27T22:46:39.629Z,3.30
2022-09-27T22:49:08.832Z,3.70
2022-09-27T22:51:37.323Z,3.70
2022-09-27T22:54:05.564Z,3.50
2022-09-27T22:56:33.534Z,3.40
2022-09-27T22:59:01.703Z,2.90
2022-09-27T23:01:29.710Z,3.00
2022-09-27T23:03:58.948Z,3.20
2022-09-27T23:06:27.016Z,2.90
2022-09-27T23:08:58.286Z,2.80
2022-09-27T23:11:27.006Z,2.80
2022-09-27T23:13:55.009Z,3.00
2022-09-27T23:16:24.902Z,2.90
2022-09-27T23:18:54.959Z,3.30
2022-09-27T23:21:25.958Z,3.30
2022-09-27T23:23:56.531Z,3.30
2022-09-27T23:26:26.568Z,2.90
2022-09-27T23:29:00.001Z,3.40
2022-09-27T23:31:31.501Z,3.20
2022-09-27T23:34:04.309Z,3.30
2022-09-27T23:36:32.577Z,3.20
2022-09-27T23:39:01.541Z,3.10
2022-09-27T23:41:29.904Z,3.10
2022-09-27T23:43:58.692Z,3.60
2022-09-27T23:46:26.891Z,3.30
2022-09-27T23:48:54.876Z,3.40
2022-09-27T23:51:22.846Z,2.60
2022-09-27T23:53:51.015Z,2.90
2022-09-27T23:56:18.969Z,2.90
2022-09-27T23:58:46.994Z,3.30
